Airport View

Enter ICAO identifier to see the current METAR for that AWOS.

KFNL for example

KLGB 230253Z 30013KT 10SM CLR 24/13 A2998

23 Jul 2014 03:41

Phone: 562-424-0572

Other Area AWOS: KSLI - KTOA - KFUL - KHHR

TAF KLGB 222343Z 2300/2324 30010G16KT P6SM SKC FM230400 31006KT P6SM SKC FM231000 VRB03KT 6SM BR BKN009 FM231600 19005KT P6SM SKC FM232200 30012KT P6SM SKC